Time;durP1;ratioP1;P1;durP2;ratioP2;P2;SDS_P1;SDS_P2;PMS_P1;PMS_P2;Temp;Humidity;BMP_temperature;BMP_pressure;BME280_temperature;BME280_humidity;BME280_pressure;Samples;Min_cycle;Max_cycle;Signal;HPM_P1;HPM_P2
2022/08/03 00:00:48;;;;;;;3.50;3.20;;;;;;;24.24;50.58;98814.69;6947217;28;20685;-78
2022/08/03 00:04:10;;;;;;;3.90;3.40;;;;;;;24.10;51.34;98810.19;6949905;28;20315;-78
2022/08/03 00:07:32;;;;;;;4.87;3.77;;;;;;;24.00;51.37;98794.56;6947731;28;20301;-79
2022/08/03 00:10:54;;;;;;;6.00;3.33;;;;;;;24.17;50.62;98794.94;6943615;28;20359;-79
2022/08/03 00:14:15;;;;;;;5.30;3.87;;;;;;;23.30;52.63;98767.69;6945996;28;20237;-79
2022/08/03 00:17:38;;;;;;;4.30;3.20;;;;;;;23.69;51.58;98798.72;6947586;28;20670;-79
2022/08/03 00:20:59;;;;;;;4.63;3.43;;;;;;;23.98;51.42;98788.56;6949009;28;20214;-79
2022/08/03 00:24:21;;;;;;;4.03;3.60;;;;;;;23.49;52.72;98798.09;6947957;28;20239;-79
2022/08/03 00:27:43;;;;;;;4.20;3.80;;;;;;;23.23;53.08;98797.47;6947984;28;20238;-82
2022/08/03 00:31:04;;;;;;;6.43;3.70;;;;;;;23.20;53.47;98792.53;6948702;28;20192;-79
2022/08/03 00:34:27;;;;;;;3.60;3.30;;;;;;;23.64;53.11;98795.19;6948527;28;20234;-79
2022/08/03 00:37:49;;;;;;;4.23;3.83;;;;;;;23.64;52.38;98789.69;6946925;28;20299;-79
2022/08/03 00:41:10;;;;;;;4.17;3.60;;;;;;;23.95;51.98;98788.31;6947105;28;20260;-80
2022/08/03 00:44:39;;;;;;;4.27;3.37;;;;;;;23.84;51.71;98776.53;6947158;28;20217;-79
2022/08/03 00:48:01;;;;;;;4.73;3.50;;;;;;;24.01;51.22;98789.91;6946867;28;20241;-79
2022/08/03 00:51:25;;;;;;;3.83;3.20;;;;;;;24.00;51.09;98789.06;6950378;28;20301;-78
2022/08/03 00:54:46;;;;;;;4.83;3.67;;;;;;;23.02;53.94;98795.91;6954114;28;20217;-78
2022/08/03 00:58:10;;;;;;;5.57;3.77;;;;;;;23.20;54.23;98791.72;6951807;28;20258;-79
2022/08/03 01:01:31;;;;;;;4.10;3.50;;;;;;;23.34;53.58;98793.53;6952204;28;20231;-79
2022/08/03 01:04:53;;;;;;;3.87;3.57;;;;;;;23.25;53.92;98788.94;6952203;28;20211;-78
2022/08/03 01:08:20;;;;;;;3.67;3.37;;;;;;;23.54;52.30;98787.84;6951155;28;20212;-78
2022/08/03 01:11:48;;;;;;;4.47;3.43;;;;;;;23.61;52.65;98788.31;6951761;28;20233;-78
2022/08/03 01:15:13;;;;;;;3.70;3.40;;;;;;;23.32;53.09;98782.00;6951707;28;20236;-79
2022/08/03 01:18:39;;;;;;;4.27;3.70;;;;;;;23.05;53.51;98791.78;6950794;28;20731;-78
2022/08/03 01:22:11;;;;;;;4.37;3.60;;;;;;;22.98;54.30;98783.88;6951330;28;20255;-78
2022/08/03 01:25:43;;;;;;;6.80;4.50;;;;;;;22.27;56.76;98785.31;6951227;28;20710;-78
2022/08/03 01:29:21;;;;;;;3.83;3.50;;;;;;;22.84;55.48;98768.28;6951205;28;20617;-78
2022/08/03 01:32:47;;;;;;;4.00;3.40;;;;;;;23.14;54.07;98773.56;6951379;28;20224;-79
2022/08/03 01:36:13;;;;;;;4.00;3.63;;;;;;;22.59;54.88;98774.75;6951584;28;20282;-78
2022/08/03 01:39:36;;;;;;;3.80;3.50;;;;;;;22.94;53.60;98732.44;6951327;28;20224;-79
2022/08/03 01:42:59;;;;;;;5.40;4.07;;;;;;;22.58;55.13;98769.53;6951093;28;20325;-78
2022/08/03 01:46:22;;;;;;;4.00;3.60;;;;;;;22.94;54.64;98768.19;6950464;28;20218;-77
2022/08/03 01:49:45;;;;;;;4.47;3.70;;;;;;;22.88;53.99;98772.91;6949818;28;20204;-77
2022/08/03 01:53:07;;;;;;;3.90;3.53;;;;;;;22.91;54.02;98761.38;6949753;28;20372;-77
2022/08/03 01:56:30;;;;;;;3.70;3.40;;;;;;;22.89;54.28;98760.00;6950069;28;20211;-77
2022/08/03 01:59:53;;;;;;;4.63;3.87;;;;;;;22.88;54.24;98766.59;6951308;28;20218;-79
2022/08/03 02:03:15;;;;;;;6.37;3.37;;;;;;;22.93;54.32;98719.81;6949573;28;20259;-77
2022/08/03 02:06:39;;;;;;;4.10;3.80;;;;;;;22.92;54.56;98746.50;6950244;28;20292;-77
2022/08/03 02:10:01;;;;;;;6.03;3.43;;;;;;;22.99;54.50;98747.00;6949314;28;20213;-77
2022/08/03 02:13:24;;;;;;;4.63;4.23;;;;;;;22.88;54.08;98747.34;6949249;28;20316;-77
2022/08/03 02:16:46;;;;;;;4.13;3.73;;;;;;;22.92;54.54;98748.41;6949772;28;20233;-77
2022/08/03 02:20:09;;;;;;;6.93;3.90;;;;;;;22.81;54.60;98764.19;6949153;28;20369;-77
2022/08/03 02:23:32;;;;;;;4.73;3.87;;;;;;;22.73;54.91;98745.50;6948634;28;20289;-76
2022/08/03 02:26:55;;;;;;;4.60;3.60;;;;;;;22.51;54.53;98761.59;6949179;28;20232;-77
2022/08/03 02:30:18;;;;;;;4.40;3.80;;;;;;;22.28;56.21;98740.25;6948168;28;20246;-77
2022/08/03 02:33:43;;;;;;;8.10;3.80;;;;;;;22.40;55.89;98751.72;6953021;28;20624;-78
2022/08/03 02:37:04;;;;;;;5.67;3.80;;;;;;;22.52;55.58;98754.16;6952076;28;20205;-78
2022/08/03 02:40:28;;;;;;;6.83;4.07;;;;;;;22.50;54.68;98748.97;6946180;28;20209;-78
2022/08/03 02:43:53;;;;;;;4.10;3.70;;;;;;;22.81;54.56;98741.34;6946306;28;20317;-78
2022/08/03 02:47:15;;;;;;;6.20;4.10;;;;;;;22.00;56.99;98743.66;6945353;28;20226;-78
2022/08/03 02:50:37;;;;;;;7.87;4.20;;;;;;;22.04;56.96;98761.22;6945830;28;20277;-78
2022/08/03 02:54:00;;;;;;;8.10;3.63;;;;;;;21.95;57.16;98757.41;6947510;28;20261;-78
2022/08/03 02:57:23;;;;;;;4.37;3.97;;;;;;;21.97;57.47;98759.88;6948515;28;20311;-78
2022/08/03 03:00:45;;;;;;;4.10;3.70;;;;;;;22.52;55.91;98765.16;6947635;28;20259;-78
2022/08/03 03:04:07;;;;;;;3.90;3.60;;;;;;;22.73;54.81;98756.50;6947560;28;20236;-78
2022/08/03 03:07:29;;;;;;;4.40;4.00;;;;;;;22.00;56.27;98760.13;6947330;28;20397;-78
2022/08/03 03:10:51;;;;;;;4.00;3.70;;;;;;;22.15;57.32;98754.59;6947875;28;20208;-78
2022/08/03 03:14:14;;;;;;;5.23;3.70;;;;;;;22.07;56.45;98741.44;6947314;28;20230;-78
2022/08/03 03:17:37;;;;;;;5.87;3.77;;;;;;;22.38;55.92;98764.94;6926214;28;20226;-78
2022/08/03 03:21:00;;;;;;;4.43;4.00;;;;;;;22.54;55.79;98758.28;6920104;28;20803;-78
2022/08/03 03:24:22;;;;;;;5.67;3.40;;;;;;;22.56;55.17;98752.50;6919878;28;20382;-78
2022/08/03 03:27:44;;;;;;;3.83;3.53;;;;;;;22.47;54.96;98755.03;6918587;28;20297;-78
2022/08/03 03:31:07;;;;;;;4.57;4.00;;;;;;;22.19;56.11;98747.41;6920138;28;20211;-78
2022/08/03 03:34:29;;;;;;;4.23;3.87;;;;;;;22.31;56.13;98744.38;6924248;28;20223;-78
2022/08/03 03:37:52;;;;;;;4.07;3.70;;;;;;;22.03;56.82;98745.03;6921060;28;20238;-78
2022/08/03 03:41:13;;;;;;;4.10;3.80;;;;;;;21.92;56.86;98741.50;6920964;28;20329;-78
2022/08/03 03:44:35;;;;;;;4.07;3.67;;;;;;;22.15;56.60;98745.53;6921238;28;20238;-78
2022/08/03 03:47:59;;;;;;;3.67;3.37;;;;;;;21.96;56.58;98753.53;6920163;28;20280;-78
2022/08/03 03:51:21;;;;;;;5.47;4.27;;;;;;;21.94;57.25;98744.78;6924322;28;20701;-78
2022/08/03 03:54:43;;;;;;;4.20;3.80;;;;;;;22.37;56.03;98755.03;6921700;28;20210;-78
2022/08/03 03:58:05;;;;;;;3.77;3.47;;;;;;;21.82;56.20;98725.03;6921378;28;20249;-78
2022/08/03 04:01:27;;;;;;;4.20;3.80;;;;;;;21.71;57.44;98706.97;6921183;28;20208;-78
2022/08/03 04:12:08;;;;;;;4.17;3.80;;;;;;;21.72;56.95;98757.19;6920140;28;20225;-78
2022/08/03 04:15:31;;;;;;;4.40;4.10;;;;;;;21.63;58.42;98756.06;6920455;28;20256;-77
2022/08/03 04:18:57;;;;;;;4.33;3.83;;;;;;;22.07;56.63;98752.41;6939882;28;20205;-78
2022/08/03 04:22:22;;;;;;;4.07;3.77;;;;;;;22.18;56.96;98756.78;6947446;28;20288;-77
2022/08/03 04:25:44;;;;;;;4.07;3.67;;;;;;;21.89;57.24;98743.97;6949729;28;20233;-78
2022/08/03 04:29:06;;;;;;;4.50;4.10;;;;;;;21.78;57.61;98751.41;6952434;28;20208;-78
2022/08/03 04:32:28;;;;;;;4.67;4.20;;;;;;;22.03;57.54;98754.09;6953680;28;20258;-78
2022/08/03 04:35:50;;;;;;;3.93;3.63;;;;;;;22.43;56.42;98755.88;6954729;28;20207;-78
2022/08/03 04:39:17;;;;;;;4.13;3.63;;;;;;;22.49;56.02;98761.03;6950104;28;20289;-78
2022/08/03 04:42:40;;;;;;;4.60;4.20;;;;;;;21.77;57.27;98766.22;6935600;28;20248;-78
2022/08/03 04:46:03;;;;;;;4.47;3.93;;;;;;;22.09;57.17;98742.00;6961861;28;20216;-79
2022/08/03 04:49:25;;;;;;;4.20;3.80;;;;;;;22.34;56.93;98777.59;6931211;28;20204;-78
2022/08/03 04:52:47;;;;;;;4.73;3.70;;;;;;;22.46;56.07;98775.38;6925187;28;20324;-78
2022/08/03 04:56:10;;;;;;;4.97;3.90;;;;;;;22.41;56.07;98775.34;6925011;28;20220;-78
2022/08/03 04:59:32;;;;;;;4.80;4.30;;;;;;;22.30;56.05;98778.44;6926793;28;20213;-79
2022/08/03 05:02:54;;;;;;;4.23;3.93;;;;;;;21.79;57.53;98755.81;6952528;28;20233;-78
2022/08/03 05:06:15;;;;;;;4.00;3.67;;;;;;;22.08;57.34;98776.03;6953451;28;20228;-81
2022/08/03 05:09:37;;;;;;;4.43;4.00;;;;;;;22.55;56.37;98787.41;6951627;28;20206;-79
2022/08/03 05:13:00;;;;;;;5.47;4.20;;;;;;;22.48;56.62;98759.41;6942374;28;20231;-79
2022/08/03 05:16:22;;;;;;;4.43;4.03;;;;;;;22.63;56.38;98775.84;6943115;28;20213;-79
2022/08/03 05:19:43;;;;;;;4.50;4.00;;;;;;;23.07;55.72;98779.38;6951150;28;20206;-78
2022/08/03 05:23:05;;;;;;;4.07;3.73;;;;;;;23.59;54.16;98800.75;6951406;28;20256;-78
2022/08/03 05:26:27;;;;;;;4.80;4.10;;;;;;;23.94;53.23;98784.72;6952782;28;20214;-79
2022/08/03 05:29:50;;;;;;;4.80;4.30;;;;;;;24.30;51.55;98794.22;6951849;28;20211;-78
2022/08/03 05:33:12;;;;;;;5.03;4.50;;;;;;;24.44;51.48;98786.91;6924733;28;20630;-78
2022/08/03 05:36:34;;;;;;;4.97;4.23;;;;;;;24.79;50.29;98799.44;6926340;28;20212;-78
2022/08/03 05:39:55;;;;;;;6.30;3.93;;;;;;;24.65;50.36;98793.03;6924725;28;20283;-78
2022/08/03 05:43:17;;;;;;;5.57;4.03;;;;;;;24.91;49.61;98781.34;6930398;28;20231;-79
2022/08/03 05:46:40;;;;;;;4.13;3.73;;;;;;;25.21;48.95;98786.38;6961101;28;20211;-80
2022/08/03 05:50:01;;;;;;;7.67;3.53;;;;;;;25.68;48.29;98782.59;6948425;28;20213;-79
2022/08/03 05:53:23;;;;;;;3.97;3.67;;;;;;;26.33;46.58;98781.38;6956406;28;20226;-79
2022/08/03 05:56:44;;;;;;;4.47;3.60;;;;;;;26.47;46.39;98760.06;6955223;28;20203;-79
2022/08/03 06:00:09;;;;;;;3.90;3.37;;;;;;;27.22;44.71;98778.59;6954753;28;20257;-80
2022/08/03 06:03:31;;;;;;;3.50;3.20;;;;;;;27.59;43.92;98769.91;6955272;28;20226;-79
2022/08/03 06:06:53;;;;;;;6.70;3.13;;;;;;;26.95;44.66;98756.50;6960465;28;20197;-79
2022/08/03 06:10:15;;;;;;;4.63;3.30;;;;;;;26.50;45.70;98740.09;6966177;28;20205;-80
2022/08/03 06:13:37;;;;;;;3.60;3.30;;;;;;;27.11;44.55;98776.34;6971807;28;20228;-78
2022/08/03 06:16:59;;;;;;;4.20;3.80;;;;;;;27.59;44.24;98758.00;6958500;28;20208;-80
2022/08/03 06:20:22;;;;;;;4.40;3.33;;;;;;;27.89;43.57;98754.47;6951522;28;20197;-79
2022/08/03 06:23:46;;;;;;;5.87;3.30;;;;;;;28.40;42.29;98774.13;6951210;28;20229;-79
2022/08/03 06:27:08;;;;;;;4.80;3.20;;;;;;;28.90;41.05;98767.88;6954142;28;20209;-79
2022/08/03 06:30:30;;;;;;;5.03;3.00;;;;;;;28.94;41.42;98770.81;6965517;28;20208;-79
2022/08/03 06:33:52;;;;;;;4.30;2.93;;;;;;;28.81;42.84;98769.00;6961338;28;20605;-78
2022/08/03 06:37:15;;;;;;;5.07;2.80;;;;;;;29.24;41.25;98767.94;6955781;28;20201;-79
2022/08/03 06:40:38;;;;;;;4.80;2.30;;;;;;;30.47;38.72;98757.50;6956100;28;20611;-80
2022/08/03 06:44:00;;;;;;;4.73;2.33;;;;;;;30.81;36.84;98765.69;6959926;28;20478;-78
2022/08/03 06:47:22;;;;;;;3.73;2.43;;;;;;;30.80;37.55;98763.25;6961005;28;20217;-78
2022/08/03 06:50:43;;;;;;;2.17;2.07;;;;;;;31.22;35.99;98762.13;6955757;28;20219;-78
2022/08/03 06:54:06;;;;;;;2.70;2.50;;;;;;;30.73;37.28;98760.97;6971717;28;20244;-79
2022/08/03 06:57:28;;;;;;;2.40;2.20;;;;;;;31.20;36.26;98758.88;6962377;28;20204;-83
2022/08/03 07:00:50;;;;;;;3.17;2.20;;;;;;;31.84;36.08;98763.69;6967288;28;20210;-77
2022/08/03 07:04:11;;;;;;;2.17;1.97;;;;;;;31.78;35.83;98776.22;6953166;28;20244;-78
2022/08/03 07:07:33;;;;;;;2.93;2.33;;;;;;;31.28;36.21;98750.47;6954354;28;20291;-80
2022/08/03 07:10:56;;;;;;;3.83;2.20;;;;;;;31.79;35.21;98733.22;6961988;28;20210;-80
2022/08/03 07:14:17;;;;;;;3.67;2.23;;;;;;;32.63;34.85;98772.44;6967666;28;20223;-79
2022/08/03 07:17:39;;;;;;;2.20;2.10;;;;;;;32.89;33.95;98766.53;6955447;28;20232;-79
2022/08/03 07:21:01;;;;;;;2.83;2.20;;;;;;;32.28;33.93;98711.81;6965663;28;20222;-80
2022/08/03 07:24:23;;;;;;;2.13;2.03;;;;;;;32.31;34.81;98725.09;6960314;28;20231;-81
2022/08/03 07:27:49;;;;;;;2.20;2.00;;;;;;;33.03;33.87;98759.38;6960168;28;20206;-79
2022/08/03 07:31:11;;;;;;;2.47;2.07;;;;;;;33.89;32.35;98762.34;6965223;28;20199;-80
2022/08/03 07:34:32;;;;;;;2.80;2.03;;;;;;;34.07;31.30;98752.44;6961369;28;20200;-79
2022/08/03 07:37:56;;;;;;;2.23;1.80;;;;;;;34.41;31.21;98751.78;6961151;28;20525;-80
2022/08/03 07:41:18;;;;;;;2.33;2.13;;;;;;;34.42;31.38;98755.38;6965111;28;20213;-79
2022/08/03 07:44:41;;;;;;;2.27;2.07;;;;;;;33.79;31.69;98757.28;6958037;28;20230;-79
2022/08/03 07:48:03;;;;;;;2.23;2.00;;;;;;;32.70;33.46;98769.88;6958722;28;20365;-79
2022/08/03 07:51:26;;;;;;;2.33;1.93;;;;;;;31.44;35.79;98759.81;6963964;28;20218;-80
2022/08/03 07:54:49;;;;;;;3.07;2.10;;;;;;;30.69;38.00;98765.63;6958727;28;20205;-79
2022/08/03 07:58:14;;;;;;;3.53;2.30;;;;;;;32.57;34.92;98759.88;6949520;28;20290;-79
2022/08/03 08:01:37;;;;;;;2.50;2.30;;;;;;;33.33;33.82;98769.13;6967849;28;20225;-79
2022/08/03 08:04:59;;;;;;;1.80;1.70;;;;;;;34.40;32.02;98752.94;6964670;28;20234;-79
2022/08/03 08:08:20;;;;;;;2.20;2.00;;;;;;;34.92;30.28;98745.03;6961052;28;20859;-78
2022/08/03 08:11:42;;;;;;;2.53;1.90;;;;;;;35.25;29.56;98733.38;6961836;28;20227;-78
2022/08/03 08:15:05;;;;;;;1.83;1.73;;;;;;;35.85;29.20;98752.25;6953665;28;20210;-78
2022/08/03 08:18:28;;;;;;;2.67;1.90;;;;;;;35.99;28.82;98744.09;6949865;28;20680;-80
2022/08/03 08:21:50;;;;;;;1.87;1.77;;;;;;;35.52;28.93;98749.97;6950452;28;20226;-79
2022/08/03 08:25:11;;;;;;;2.03;1.80;;;;;;;36.05;27.69;98740.63;6952334;28;20254;-79
2022/08/03 08:28:33;;;;;;;2.67;2.00;;;;;;;35.62;28.29;98740.97;6951040;28;20308;-79
2022/08/03 08:31:54;;;;;;;2.53;1.80;;;;;;;36.18;27.27;98744.88;6952929;28;20228;-80
2022/08/03 08:35:18;;;;;;;2.30;1.60;;;;;;;36.32;26.65;98744.34;6955268;28;20231;-83
2022/08/03 08:38:41;;;;;;;1.80;1.70;;;;;;;36.21;26.78;98746.16;6956252;28;20298;-79
2022/08/03 08:42:03;;;;;;;3.47;1.80;;;;;;;36.46;26.39;98745.38;6951806;28;20219;-79
2022/08/03 08:45:24;;;;;;;1.97;1.50;;;;;;;36.96;26.32;98739.34;6952912;28;20230;-80
2022/08/03 08:48:46;;;;;;;2.90;1.60;;;;;;;37.03;25.77;98742.25;6951104;28;20264;-80
2022/08/03 08:52:09;;;;;;;2.77;1.70;;;;;;;36.90;25.40;98735.25;6951433;28;20310;-80
2022/08/03 08:55:31;;;;;;;2.57;1.60;;;;;;;37.23;25.14;98734.53;6951819;28;20563;-80
2022/08/03 08:58:56;;;;;;;1.80;1.70;;;;;;;37.28;25.13;98739.84;6953194;28;20308;-80
2022/08/03 09:02:17;;;;;;;1.47;1.37;;;;;;;37.17;24.76;98711.56;6949851;28;20873;-81
2022/08/03 09:05:42;;;;;;;1.50;1.40;;;;;;;37.27;24.34;98735.41;6949040;28;20691;-80
2022/08/03 09:09:06;;;;;;;2.60;1.50;;;;;;;36.96;25.20;98730.13;6943930;28;20653;-80
2022/08/03 09:12:27;;;;;;;1.53;1.43;;;;;;;37.31;24.12;98731.44;6924827;28;20254;-80
2022/08/03 09:15:49;;;;;;;4.40;1.70;;;;;;;37.66;23.74;98728.28;6952037;28;20667;-80
2022/08/03 09:19:12;;;;;;;1.73;1.17;;;;;;;37.69;23.46;98742.41;6951948;28;20199;-80
2022/08/03 09:22:34;;;;;;;1.40;1.30;;;;;;;37.44;23.67;98727.16;6974716;28;20223;-83
2022/08/03 09:26:00;;;;;;;3.60;1.70;;;;;;;37.53;23.76;98724.91;6941220;28;20247;-80
2022/08/03 09:29:22;;;;;;;1.50;1.40;;;;;;;37.37;23.89;98684.09;6953513;28;20560;-80
2022/08/03 09:32:45;;;;;;;1.57;1.47;;;;;;;37.85;23.12;98714.81;6953362;28;20571;-80
2022/08/03 09:36:06;;;;;;;1.37;1.27;;;;;;;37.58;23.26;98712.50;6952345;28;20292;-80
2022/08/03 09:39:30;;;;;;;2.67;1.60;;;;;;;37.44;22.97;98712.31;6951197;28;20211;-81
2022/08/03 09:42:57;;;;;;;2.43;1.63;;;;;;;37.54;23.87;98723.72;6952798;28;20242;-80
2022/08/03 09:46:18;;;;;;;2.00;1.67;;;;;;;37.96;23.18;98727.00;6948233;28;20682;-80
2022/08/03 09:49:41;;;;;;;1.83;1.73;;;;;;;37.72;23.34;98723.94;6949228;28;20207;-79
2022/08/03 09:53:03;;;;;;;2.73;1.60;;;;;;;38.49;22.85;98708.63;6953672;28;20242;-79
2022/08/03 09:56:38;;;;;;;1.30;1.20;;;;;;;38.59;21.95;98710.72;6960527;28;20211;-79
2022/08/03 10:00:10;;;;;;;1.50;1.40;;;;;;;38.86;22.08;98708.50;6956534;28;20278;-80
2022/08/03 10:03:35;;;;;;;2.10;1.70;;;;;;;38.27;21.04;98692.72;6950698;28;20226;-79
2022/08/03 10:07:06;;;;;;;2.27;1.70;;;;;;;38.30;22.16;98711.66;6951885;28;20235;-79
2022/08/03 10:10:41;;;;;;;1.93;1.70;;;;;;;39.08;21.21;98707.44;6950786;28;20304;-79
2022/08/03 10:14:04;;;;;;;2.10;2.00;;;;;;;39.02;21.18;98694.91;6950880;28;20326;-79
2022/08/03 10:17:27;;;;;;;3.97;1.70;;;;;;;38.82;21.35;98696.38;6950840;28;21142;-79
2022/08/03 10:20:52;;;;;;;2.00;1.90;;;;;;;39.24;20.45;98688.16;6949529;28;20218;-79
2022/08/03 10:24:16;;;;;;;2.00;1.90;;;;;;;38.17;22.16;98701.06;6949030;28;20223;-79
2022/08/03 10:27:41;;;;;;;2.00;1.90;;;;;;;39.25;20.41;98684.16;6950744;28;20227;-79
2022/08/03 10:31:06;;;;;;;2.13;1.75;;;;;;;38.28;20.33;98662.53;6951072;28;20665;-79
2022/08/03 10:34:34;;;;;;;1.67;1.57;;;;;;;39.06;20.57;98685.25;6951065;28;20231;-79
2022/08/03 10:37:58;;;;;;;2.88;1.83;;;;;;;39.15;20.55;98674.41;6950822;28;20206;-79
2022/08/03 10:41:20;;;;;;;2.40;2.20;;;;;;;38.45;20.82;98670.34;6951462;28;20250;-79
2022/08/03 10:44:42;;;;;;;2.30;1.80;;;;;;;38.71;21.24;98637.09;6950856;28;20230;-79
2022/08/03 10:48:05;;;;;;;2.20;2.00;;;;;;;39.61;19.68;98675.41;6948702;28;20214;-78
2022/08/03 10:51:30;;;;;;;2.00;1.90;;;;;;;39.59;20.24;98669.38;6935141;28;20296;-79
2022/08/03 10:58:50;;;;;;;2.38;2.17;;;;;;;39.38;20.47;98672.13;6949205;28;20183;-79
2022/08/03 11:02:12;;;;;;;2.22;2.00;;;;;;;39.18;20.74;98665.16;6949081;28;20223;-79
2022/08/03 11:05:40;;;;;;;2.10;1.83;;;;;;;40.12;19.75;98663.81;6952245;28;20389;-79
2022/08/03 11:09:16;;;;;;;2.28;2.08;;;;;;;40.19;19.63;98663.88;6948870;28;20245;-80
2022/08/03 11:12:38;;;;;;;1.80;1.70;;;;;;;38.77;20.42;98643.97;6947644;28;20231;-80
2022/08/03 11:16:02;;;;;;;1.95;1.85;;;;;;;37.81;22.20;98666.13;6949019;28;20191;-80
2022/08/03 11:19:43;;;;;;;5.20;2.07;;;;;;;38.32;21.32;98658.53;6948584;28;20249;-80
2022/08/03 11:23:05;;;;;;;2.00;1.90;;;;;;;37.40;22.59;98644.75;6921680;28;20255;-79
2022/08/03 11:26:28;;;;;;;2.03;1.93;;;;;;;37.82;21.11;98664.91;6921777;28;20227;-79
2022/08/03 11:29:58;;;;;;;2.23;2.03;;;;;;;38.94;21.20;98648.13;6921497;28;20209;-81
2022/08/03 11:33:29;;;;;;;2.53;2.07;;;;;;;39.46;19.91;98648.38;6921547;28;20235;-79
2022/08/03 11:37:20;;;;;;;2.47;2.22;;;;;;;40.34;19.83;98651.34;6923915;28;20207;-80
2022/08/03 11:40:44;;;;;;;65.95;59.40;;;;;;;39.73;19.97;98643.22;6947999;28;20203;-81
2022/08/03 11:44:06;;;;;;;56.70;52.40;;;;;;;39.41;20.37;98620.53;6947360;28;20238;-78
2022/08/03 11:47:29;;;;;;;8.40;7.60;;;;;;;39.46;20.21;98641.91;6947439;28;20600;-79
2022/08/03 11:50:51;;;;;;;5.82;5.20;;;;;;;38.78;21.51;98647.63;6947389;28;20261;-77
2022/08/03 11:54:13;;;;;;;5.37;2.70;;;;;;;39.02;20.46;98632.88;6947956;28;20310;-79
2022/08/03 11:57:35;;;;;;;3.60;2.13;;;;;;;39.10;19.77;98626.84;6946986;28;20245;-78
2022/08/03 12:01:05;;;;;;;3.37;2.40;;;;;;;38.58;20.36;98567.34;6946824;28;20222;-78
2022/08/03 12:04:27;;;;;;;1.80;1.70;;;;;;;38.87;19.55;98617.88;6947419;28;20277;-78
2022/08/03 12:07:48;;;;;;;1.80;1.70;;;;;;;37.80;20.88;98624.28;6946441;28;20250;-78
2022/08/03 12:11:12;;;;;;;1.90;1.80;;;;;;;37.16;21.53;98625.59;6946874;28;20247;-78
2022/08/03 12:14:33;;;;;;;2.47;2.15;;;;;;;39.17;20.08;98626.88;6946841;28;20293;-78
2022/08/03 12:17:57;;;;;;;2.53;2.00;;;;;;;39.45;20.00;98627.00;6946944;28;20304;-78
2022/08/03 12:21:23;;;;;;;2.10;1.90;;;;;;;39.75;20.30;98619.03;6947357;28;20231;-78
2022/08/03 12:24:45;;;;;;;2.33;2.15;;;;;;;38.54;20.93;98625.72;6948845;28;20218;-78
2022/08/03 12:28:09;;;;;;;3.22;2.00;;;;;;;38.26;21.29;98619.88;6958911;28;20227;-77
2022/08/03 12:31:31;;;;;;;1.88;1.73;;;;;;;39.71;19.86;98606.91;6974586;28;20183;-77
2022/08/03 12:35:12;;;;;;;2.10;1.90;;;;;;;38.64;20.70;98610.88;6950440;28;20694;-78
2022/08/03 12:38:34;;;;;;;2.00;1.90;;;;;;;37.30;21.58;98617.31;6946702;28;20727;-78
2022/08/03 12:41:57;;;;;;;2.60;1.77;;;;;;;37.17;22.35;98613.13;6947180;28;20227;-78
2022/08/03 12:45:20;;;;;;;2.20;1.98;;;;;;;38.36;20.67;98610.66;6941740;28;20249;-77
2022/08/03 12:49:05;;;;;;;5.50;1.77;;;;;;;37.62;21.12;98609.22;6950032;28;20250;-80
2022/08/03 12:52:43;;;;;;;2.07;1.83;;;;;;;37.41;20.67;98601.34;6952312;28;20727;-79
2022/08/03 12:56:05;;;;;;;2.80;1.90;;;;;;;37.98;20.50;98595.13;6951971;28;20201;-78
2022/08/03 12:59:28;;;;;;;1.63;1.53;;;;;;;37.84;21.04;98591.34;6952045;28;20207;-81
2022/08/03 13:02:59;;;;;;;1.70;1.60;;;;;;;39.71;19.42;98598.44;6952017;28;20276;-78
2022/08/03 13:06:22;;;;;;;1.77;1.67;;;;;;;39.37;20.17;98591.47;6952203;28;20206;-78
2022/08/03 13:09:46;;;;;;;2.17;1.80;;;;;;;39.52;19.76;98578.22;6949342;28;20240;-78
2022/08/03 13:13:08;;;;;;;2.22;1.90;;;;;;;39.04;19.58;98583.31;6950477;28;20628;-79
2022/08/03 13:16:29;;;;;;;2.22;1.80;;;;;;;38.99;19.10;98586.50;6951797;28;20226;-79
2022/08/03 13:19:52;;;;;;;4.22;1.92;;;;;;;39.38;19.05;98578.97;6950904;28;20362;-79
2022/08/03 13:23:13;;;;;;;2.03;1.70;;;;;;;39.93;19.02;98580.28;6951185;28;20223;-78
2022/08/03 13:26:36;;;;;;;2.33;1.85;;;;;;;40.60;18.22;98594.41;6951214;28;20226;-78
2022/08/03 13:29:58;;;;;;;1.90;1.80;;;;;;;40.24;18.35;98571.00;6949882;28;20242;-77
2022/08/03 13:33:19;;;;;;;1.77;1.55;;;;;;;40.10;19.11;98576.66;6950727;28;20231;-78
2022/08/03 13:36:41;;;;;;;1.58;1.48;;;;;;;40.16;18.78;98571.41;6950378;28;20251;-78
2022/08/03 13:40:04;;;;;;;1.80;1.70;;;;;;;39.97;18.80;98564.13;6949905;28;20215;-78
2022/08/03 13:43:27;;;;;;;1.90;1.70;;;;;;;39.50;19.38;98567.31;6931116;28;20318;-78
2022/08/03 13:46:49;;;;;;;1.77;1.67;;;;;;;40.29;18.39;98562.13;6922720;28;20730;-77
2022/08/03 13:50:10;;;;;;;3.10;1.90;;;;;;;40.37;17.89;98566.53;6922452;28;20214;-77
2022/08/03 13:53:32;;;;;;;2.13;1.63;;;;;;;39.79;18.56;98568.97;6930184;28;20231;-78
2022/08/03 13:56:54;;;;;;;1.70;1.60;;;;;;;40.39;18.00;98561.31;6955063;28;20204;-78
2022/08/03 14:00:22;;;;;;;2.67;1.77;;;;;;;40.05;18.22;98562.13;6943735;28;20302;-78
2022/08/03 14:03:45;;;;;;;2.35;1.60;;;;;;;40.24;17.81;98550.41;6949169;28;20284;-77
2022/08/03 14:07:06;;;;;;;1.50;1.42;;;;;;;39.72;18.54;98545.59;6949335;28;20222;-77
2022/08/03 14:10:28;;;;;;;1.73;1.60;;;;;;;39.39;18.58;98554.41;6948852;28;20246;-77
2022/08/03 14:13:49;;;;;;;1.50;1.40;;;;;;;39.80;18.02;98533.91;6949252;28;20226;-77
2022/08/03 14:17:12;;;;;;;1.48;1.38;;;;;;;40.10;17.69;98548.41;6943774;28;20239;-77
2022/08/03 14:20:34;;;;;;;1.65;1.55;;;;;;;39.58;18.47;98545.56;6948223;28;20265;-77
2022/08/03 14:23:56;;;;;;;1.45;1.40;;;;;;;38.94;18.93;98541.78;6948841;28;20223;-76
2022/08/03 14:27:17;;;;;;;2.08;1.70;;;;;;;38.30;19.19;98530.53;6948185;28;20235;-77
2022/08/03 14:30:39;;;;;;;1.67;1.58;;;;;;;38.48;19.05;98542.75;6948200;28;20214;-77
2022/08/03 14:34:02;;;;;;;2.38;1.98;;;;;;;38.55;18.72;98532.31;6948803;28;20324;-77
2022/08/03 14:37:23;;;;;;;2.37;1.77;;;;;;;38.18;19.81;98542.94;6948655;28;20222;-77
2022/08/03 14:40:45;;;;;;;2.60;1.73;;;;;;;37.75;20.13;98526.94;6948323;28;20207;-77
2022/08/03 14:44:06;;;;;;;1.70;1.60;;;;;;;37.53;20.33;98536.38;6946905;28;20223;-77
2022/08/03 14:47:28;;;;;;;2.50;1.67;;;;;;;38.38;20.21;98535.81;6948695;28;20275;-78
2022/08/03 14:50:51;;;;;;;2.17;1.70;;;;;;;38.02;20.50;98536.81;6947685;28;20297;-78
2022/08/03 14:54:13;;;;;;;2.00;1.90;;;;;;;39.25;20.27;98526.94;6948685;28;20227;-77
2022/08/03 14:57:34;;;;;;;2.27;1.70;;;;;;;39.02;19.02;98520.84;6948536;28;20349;-77
2022/08/03 15:00:56;;;;;;;1.70;1.58;;;;;;;38.94;19.28;98522.03;6949475;28;20215;-78
2022/08/03 15:04:17;;;;;;;1.70;1.60;;;;;;;38.91;20.09;98522.81;6948467;28;20325;-78
2022/08/03 15:07:40;;;;;;;2.40;1.90;;;;;;;38.88;19.66;98509.53;6947694;28;20261;-79
2022/08/03 15:11:02;;;;;;;2.17;1.93;;;;;;;39.01;18.55;98509.97;6939587;28;20333;-79
2022/08/03 15:14:24;;;;;;;3.00;1.53;;;;;;;39.16;18.24;98500.31;6944550;28;20223;-81
2022/08/03 15:17:45;;;;;;;1.60;1.50;;;;;;;38.72;18.34;98505.41;6948533;28;20300;-79
2022/08/03 15:21:07;;;;;;;1.70;1.60;;;;;;;38.84;18.50;98493.78;6941030;28;20618;-79
2022/08/03 15:24:30;;;;;;;1.83;1.73;;;;;;;38.96;17.33;98493.44;6947098;28;20230;-79
2022/08/03 15:27:52;;;;;;;1.53;1.43;;;;;;;39.16;16.51;98498.31;6943751;28;20210;-79
2022/08/03 15:31:13;;;;;;;2.43;1.40;;;;;;;38.96;17.56;98494.22;6921137;28;20208;-79
2022/08/03 15:34:35;;;;;;;1.70;1.60;;;;;;;38.33;17.47;98491.13;6921175;28;20259;-79
2022/08/03 15:37:56;;;;;;;1.63;1.53;;;;;;;38.74;17.34;98478.44;6920040;28;20231;-79
2022/08/03 15:41:20;;;;;;;1.92;1.80;;;;;;;39.02;17.54;98487.00;6919377;28;20282;-79
2022/08/03 15:44:41;;;;;;;1.83;1.60;;;;;;;38.85;18.15;98484.16;6945414;28;20363;-78
2022/08/03 15:48:04;;;;;;;2.00;1.90;;;;;;;38.77;17.97;98477.63;6950526;28;20195;-79
2022/08/03 15:51:25;;;;;;;1.67;1.58;;;;;;;39.00;18.46;98483.78;6948330;28;20247;-79
2022/08/03 15:54:47;;;;;;;1.70;1.60;;;;;;;39.19;18.15;98477.75;6948840;28;20277;-79
2022/08/03 15:58:10;;;;;;;1.60;1.50;;;;;;;38.98;17.87;98477.75;6953505;28;20207;-80
2022/08/03 16:01:31;;;;;;;2.88;1.70;;;;;;;38.84;18.06;98457.13;6953986;28;20711;-80
2022/08/03 16:04:53;;;;;;;1.80;1.70;;;;;;;39.12;18.16;98472.09;6960178;28;20203;-80
2022/08/03 16:08:14;;;;;;;1.80;1.70;;;;;;;39.00;17.78;98461.22;6947626;28;20218;-80